sensor_id;sensor_type;location;lat;lon;timestamp;P1;durP1;ratioP1;P2;durP2;ratioP2
44036;SDS011;62488;-37.670;-63.532;2023-04-28T00:00:49;22.75;;;3.85;;
44036;SDS011;62488;-37.670;-63.532;2023-04-28T00:03:19;20.55;;;4.72;;
44036;SDS011;62488;-37.670;-63.532;2023-04-28T00:05:46;29.10;;;4.97;;
44036;SDS011;62488;-37.670;-63.532;2023-04-28T00:08:14;19.58;;;3.55;;
44036;SDS011;62488;-37.670;-63.532;2023-04-28T00:10:41;28.98;;;4.95;;
44036;SDS011;62488;-37.670;-63.532;2023-04-28T00:13:08;21.00;;;4.88;;
44036;SDS011;62488;-37.670;-63.532;2023-04-28T00:15:36;25.20;;;4.13;;
44036;SDS011;62488;-37.670;-63.532;2023-04-28T00:18:03;18.67;;;4.70;;
44036;SDS011;62488;-37.670;-63.532;2023-04-28T00:20:30;19.67;;;4.95;;
44036;SDS011;62488;-37.670;-63.532;2023-04-28T00:22:57;24.50;;;4.88;;
44036;SDS011;62488;-37.670;-63.532;2023-04-28T00:25:24;25.13;;;5.38;;
44036;SDS011;62488;-37.670;-63.532;2023-04-28T00:27:51;35.55;;;6.60;;
44036;SDS011;62488;-37.670;-63.532;2023-04-28T00:30:18;30.20;;;5.47;;
44036;SDS011;62488;-37.670;-63.532;2023-04-28T00:32:45;25.77;;;5.80;;
44036;SDS011;62488;-37.670;-63.532;2023-04-28T00:35:12;29.35;;;5.78;;
44036;SDS011;62488;-37.670;-63.532;2023-04-28T00:37:39;28.20;;;5.68;;
44036;SDS011;62488;-37.670;-63.532;2023-04-28T00:40:06;22.85;;;5.95;;
44036;SDS011;62488;-37.670;-63.532;2023-04-28T00:42:33;29.40;;;5.95;;
44036;SDS011;62488;-37.670;-63.532;2023-04-28T00:45:01;26.92;;;6.45;;
44036;SDS011;62488;-37.670;-63.532;2023-04-28T00:49:58;24.95;;;6.18;;
44036;SDS011;62488;-37.670;-63.532;2023-04-28T00:52:26;19.65;;;6.03;;
44036;SDS011;62488;-37.670;-63.532;2023-04-28T00:54:54;24.75;;;6.15;;
44036;SDS011;62488;-37.670;-63.532;2023-04-28T00:57:21;30.60;;;6.07;;
44036;SDS011;62488;-37.670;-63.532;2023-04-28T00:59:49;30.75;;;6.30;;
44036;SDS011;62488;-37.670;-63.532;2023-04-28T01:02:16;30.25;;;6.13;;
44036;SDS011;62488;-37.670;-63.532;2023-04-28T01:04:43;17.48;;;5.18;;
44036;SDS011;62488;-37.670;-63.532;2023-04-28T01:07:11;22.38;;;4.97;;
44036;SDS011;62488;-37.670;-63.532;2023-04-28T01:09:38;25.63;;;5.95;;
44036;SDS011;62488;-37.670;-63.532;2023-04-28T01:12:05;34.00;;;7.13;;
44036;SDS011;62488;-37.670;-63.532;2023-04-28T01:14:32;31.63;;;5.75;;
44036;SDS011;62488;-37.670;-63.532;2023-04-28T01:17:00;22.48;;;5.75;;
44036;SDS011;62488;-37.670;-63.532;2023-04-28T01:19:27;29.27;;;5.75;;
44036;SDS011;62488;-37.670;-63.532;2023-04-28T01:21:54;24.65;;;5.45;;
44036;SDS011;62488;-37.670;-63.532;2023-04-28T01:24:21;33.10;;;5.07;;
44036;SDS011;62488;-37.670;-63.532;2023-04-28T01:26:48;37.70;;;5.28;;
44036;SDS011;62488;-37.670;-63.532;2023-04-28T01:29:15;23.73;;;5.63;;
44036;SDS011;62488;-37.670;-63.532;2023-04-28T01:31:42;26.83;;;5.18;;
44036;SDS011;62488;-37.670;-63.532;2023-04-28T01:34:09;22.52;;;4.80;;
44036;SDS011;62488;-37.670;-63.532;2023-04-28T01:36:37;31.05;;;5.03;;
44036;SDS011;62488;-37.670;-63.532;2023-04-28T01:39:04;21.52;;;4.90;;
44036;SDS011;62488;-37.670;-63.532;2023-04-28T01:41:31;35.35;;;4.88;;
44036;SDS011;62488;-37.670;-63.532;2023-04-28T01:44:01;31.77;;;6.10;;
44036;SDS011;62488;-37.670;-63.532;2023-04-28T01:46:29;26.92;;;4.68;;
44036;SDS011;62488;-37.670;-63.532;2023-04-28T01:48:56;28.13;;;5.22;;
44036;SDS011;62488;-37.670;-63.532;2023-04-28T01:51:25;24.80;;;4.68;;
44036;SDS011;62488;-37.670;-63.532;2023-04-28T01:53:59;27.92;;;5.63;;
44036;SDS011;62488;-37.670;-63.532;2023-04-28T01:56:26;36.35;;;5.50;;
44036;SDS011;62488;-37.670;-63.532;2023-04-28T01:58:53;24.70;;;3.83;;
44036;SDS011;62488;-37.670;-63.532;2023-04-28T02:01:20;18.65;;;4.18;;
44036;SDS011;62488;-37.670;-63.532;2023-04-28T02:03:47;33.30;;;5.70;;
44036;SDS011;62488;-37.670;-63.532;2023-04-28T02:06:14;24.60;;;5.03;;
44036;SDS011;62488;-37.670;-63.532;2023-04-28T02:08:41;22.02;;;4.47;;
44036;SDS011;62488;-37.670;-63.532;2023-04-28T02:11:08;19.52;;;4.75;;
44036;SDS011;62488;-37.670;-63.532;2023-04-28T02:13:35;26.10;;;5.53;;
44036;SDS011;62488;-37.670;-63.532;2023-04-28T02:16:02;26.38;;;5.05;;
44036;SDS011;62488;-37.670;-63.532;2023-04-28T02:18:30;24.52;;;4.97;;
44036;SDS011;62488;-37.670;-63.532;2023-04-28T02:20:57;24.90;;;4.30;;
44036;SDS011;62488;-37.670;-63.532;2023-04-28T02:23:23;26.25;;;4.93;;
44036;SDS011;62488;-37.670;-63.532;2023-04-28T02:25:59;26.67;;;4.40;;
44036;SDS011;62488;-37.670;-63.532;2023-04-28T02:28:26;26.30;;;4.93;;
44036;SDS011;62488;-37.670;-63.532;2023-04-28T02:31:02;20.70;;;5.32;;
44036;SDS011;62488;-37.670;-63.532;2023-04-28T02:33:33;22.27;;;5.13;;
44036;SDS011;62488;-37.670;-63.532;2023-04-28T02:36:00;34.92;;;5.25;;
44036;SDS011;62488;-37.670;-63.532;2023-04-28T02:38:28;24.75;;;4.10;;
44036;SDS011;62488;-37.670;-63.532;2023-04-28T02:40:56;24.77;;;4.50;;
44036;SDS011;62488;-37.670;-63.532;2023-04-28T02:43:24;23.05;;;4.30;;
44036;SDS011;62488;-37.670;-63.532;2023-04-28T02:45:52;29.30;;;4.65;;
44036;SDS011;62488;-37.670;-63.532;2023-04-28T02:48:19;19.33;;;4.75;;
44036;SDS011;62488;-37.670;-63.532;2023-04-28T02:50:46;25.33;;;3.88;;
44036;SDS011;62488;-37.670;-63.532;2023-04-28T02:53:13;22.60;;;4.00;;
44036;SDS011;62488;-37.670;-63.532;2023-04-28T02:55:40;17.95;;;3.92;;
44036;SDS011;62488;-37.670;-63.532;2023-04-28T02:58:08;23.42;;;3.90;;
44036;SDS011;62488;-37.670;-63.532;2023-04-28T03:00:35;11.13;;;3.63;;
44036;SDS011;62488;-37.670;-63.532;2023-04-28T03:03:02;23.42;;;3.83;;
44036;SDS011;62488;-37.670;-63.532;2023-04-28T03:05:29;27.55;;;5.13;;
44036;SDS011;62488;-37.670;-63.532;2023-04-28T03:07:56;16.80;;;3.95;;
44036;SDS011;62488;-37.670;-63.532;2023-04-28T03:10:23;24.75;;;4.80;;
44036;SDS011;62488;-37.670;-63.532;2023-04-28T03:12:50;20.10;;;3.72;;
44036;SDS011;62488;-37.670;-63.532;2023-04-28T03:15:17;20.67;;;3.72;;
44036;SDS011;62488;-37.670;-63.532;2023-04-28T03:17:45;18.58;;;4.10;;
44036;SDS011;62488;-37.670;-63.532;2023-04-28T03:20:12;13.32;;;3.38;;
44036;SDS011;62488;-37.670;-63.532;2023-04-28T03:22:39;20.80;;;3.55;;
44036;SDS011;62488;-37.670;-63.532;2023-04-28T03:25:06;18.25;;;4.25;;
44036;SDS011;62488;-37.670;-63.532;2023-04-28T03:27:34;22.75;;;4.38;;
44036;SDS011;62488;-37.670;-63.532;2023-04-28T03:30:01;22.60;;;4.45;;
44036;SDS011;62488;-37.670;-63.532;2023-04-28T03:32:28;17.05;;;4.25;;
44036;SDS011;62488;-37.670;-63.532;2023-04-28T03:34:55;17.70;;;3.58;;
44036;SDS011;62488;-37.670;-63.532;2023-04-28T03:37:22;24.70;;;3.40;;
44036;SDS011;62488;-37.670;-63.532;2023-04-28T03:39:49;12.27;;;3.22;;
44036;SDS011;62488;-37.670;-63.532;2023-04-28T03:42:16;17.38;;;3.30;;
44036;SDS011;62488;-37.670;-63.532;2023-04-28T03:44:43;17.67;;;3.20;;
44036;SDS011;62488;-37.670;-63.532;2023-04-28T03:47:10;15.07;;;3.95;;
44036;SDS011;62488;-37.670;-63.532;2023-04-28T03:49:37;18.10;;;3.65;;
44036;SDS011;62488;-37.670;-63.532;2023-04-28T03:52:04;6.50;;;3.45;;
44036;SDS011;62488;-37.670;-63.532;2023-04-28T03:54:32;16.65;;;3.90;;
44036;SDS011;62488;-37.670;-63.532;2023-04-28T03:56:59;15.60;;;3.70;;
44036;SDS011;62488;-37.670;-63.532;2023-04-28T03:59:26;14.90;;;3.63;;
44036;SDS011;62488;-37.670;-63.532;2023-04-28T04:01:53;14.70;;;3.92;;
44036;SDS011;62488;-37.670;-63.532;2023-04-28T04:04:20;15.95;;;4.00;;
44036;SDS011;62488;-37.670;-63.532;2023-04-28T04:06:47;22.42;;;3.75;;
44036;SDS011;62488;-37.670;-63.532;2023-04-28T04:09:14;20.98;;;3.97;;
44036;SDS011;62488;-37.670;-63.532;2023-04-28T04:11:41;16.60;;;4.07;;
44036;SDS011;62488;-37.670;-63.532;2023-04-28T04:14:08;23.10;;;4.10;;
44036;SDS011;62488;-37.670;-63.532;2023-04-28T04:16:35;13.60;;;2.92;;
44036;SDS011;62488;-37.670;-63.532;2023-04-28T04:19:02;31.83;;;3.47;;
44036;SDS011;62488;-37.670;-63.532;2023-04-28T04:21:29;29.45;;;4.40;;
44036;SDS011;62488;-37.670;-63.532;2023-04-28T04:23:56;20.08;;;4.70;;
44036;SDS011;62488;-37.670;-63.532;2023-04-28T04:26:23;19.35;;;3.95;;
44036;SDS011;62488;-37.670;-63.532;2023-04-28T04:28:50;11.27;;;3.63;;
44036;SDS011;62488;-37.670;-63.532;2023-04-28T04:31:17;17.67;;;3.38;;
44036;SDS011;62488;-37.670;-63.532;2023-04-28T04:33:44;17.02;;;3.30;;
44036;SDS011;62488;-37.670;-63.532;2023-04-28T04:36:11;17.92;;;3.85;;
44036;SDS011;62488;-37.670;-63.532;2023-04-28T04:38:38;18.10;;;4.60;;
44036;SDS011;62488;-37.670;-63.532;2023-04-28T04:41:05;24.27;;;3.75;;
44036;SDS011;62488;-37.670;-63.532;2023-04-28T04:43:32;16.88;;;3.35;;
44036;SDS011;62488;-37.670;-63.532;2023-04-28T04:45:59;17.90;;;4.03;;
44036;SDS011;62488;-37.670;-63.532;2023-04-28T04:48:28;23.77;;;4.75;;
44036;SDS011;62488;-37.670;-63.532;2023-04-28T04:50:55;17.73;;;4.13;;
44036;SDS011;62488;-37.670;-63.532;2023-04-28T04:53:22;11.85;;;3.30;;
44036;SDS011;62488;-37.670;-63.532;2023-04-28T04:55:49;22.52;;;4.28;;
44036;SDS011;62488;-37.670;-63.532;2023-04-28T04:58:16;15.88;;;3.50;;
44036;SDS011;62488;-37.670;-63.532;2023-04-28T05:00:43;19.55;;;3.05;;
44036;SDS011;62488;-37.670;-63.532;2023-04-28T05:03:10;15.65;;;4.60;;
44036;SDS011;62488;-37.670;-63.532;2023-04-28T05:05:37;19.88;;;3.28;;
44036;SDS011;62488;-37.670;-63.532;2023-04-28T05:08:04;18.00;;;4.13;;
44036;SDS011;62488;-37.670;-63.532;2023-04-28T05:10:31;27.95;;;3.15;;
44036;SDS011;62488;-37.670;-63.532;2023-04-28T05:12:58;13.15;;;4.05;;
44036;SDS011;62488;-37.670;-63.532;2023-04-28T05:15:25;18.45;;;3.67;;
44036;SDS011;62488;-37.670;-63.532;2023-04-28T05:17:52;14.43;;;2.85;;
44036;SDS011;62488;-37.670;-63.532;2023-04-28T05:20:19;21.92;;;3.22;;
44036;SDS011;62488;-37.670;-63.532;2023-04-28T05:22:46;16.13;;;3.13;;
44036;SDS011;62488;-37.670;-63.532;2023-04-28T05:25:13;19.75;;;3.65;;
44036;SDS011;62488;-37.670;-63.532;2023-04-28T05:27:40;12.93;;;3.40;;
44036;SDS011;62488;-37.670;-63.532;2023-04-28T05:30:08;16.58;;;3.72;;
44036;SDS011;62488;-37.670;-63.532;2023-04-28T05:32:36;14.68;;;3.53;;
44036;SDS011;62488;-37.670;-63.532;2023-04-28T05:35:03;15.90;;;4.07;;
44036;SDS011;62488;-37.670;-63.532;2023-04-28T05:37:31;16.48;;;4.25;;
44036;SDS011;62488;-37.670;-63.532;2023-04-28T05:39:58;12.57;;;3.33;;
44036;SDS011;62488;-37.670;-63.532;2023-04-28T05:42:25;20.95;;;4.50;;
44036;SDS011;62488;-37.670;-63.532;2023-04-28T05:44:52;15.85;;;3.60;;
44036;SDS011;62488;-37.670;-63.532;2023-04-28T05:47:19;10.70;;;3.15;;
44036;SDS011;62488;-37.670;-63.532;2023-04-28T05:49:46;14.43;;;3.92;;
44036;SDS011;62488;-37.670;-63.532;2023-04-28T05:52:13;10.48;;;4.18;;
44036;SDS011;62488;-37.670;-63.532;2023-04-28T05:54:40;18.63;;;2.83;;
44036;SDS011;62488;-37.670;-63.532;2023-04-28T05:57:07;18.83;;;4.78;;
44036;SDS011;62488;-37.670;-63.532;2023-04-28T05:59:34;22.45;;;4.45;;
44036;SDS011;62488;-37.670;-63.532;2023-04-28T06:02:01;14.90;;;3.80;;
44036;SDS011;62488;-37.670;-63.532;2023-04-28T06:04:28;22.27;;;4.35;;
44036;SDS011;62488;-37.670;-63.532;2023-04-28T06:06:55;13.18;;;3.10;;
44036;SDS011;62488;-37.670;-63.532;2023-04-28T06:09:22;16.13;;;3.53;;
44036;SDS011;62488;-37.670;-63.532;2023-04-28T06:11:49;23.02;;;4.15;;
44036;SDS011;62488;-37.670;-63.532;2023-04-28T06:14:16;15.35;;;3.47;;
44036;SDS011;62488;-37.670;-63.532;2023-04-28T06:16:43;19.58;;;3.85;;
44036;SDS011;62488;-37.670;-63.532;2023-04-28T06:19:10;22.73;;;3.35;;
44036;SDS011;62488;-37.670;-63.532;2023-04-28T06:21:39;16.33;;;3.73;;
44036;SDS011;62488;-37.670;-63.532;2023-04-28T06:24:05;22.83;;;4.07;;
44036;SDS011;62488;-37.670;-63.532;2023-04-28T06:26:32;17.55;;;3.70;;
44036;SDS011;62488;-37.670;-63.532;2023-04-28T06:28:59;24.45;;;4.43;;
44036;SDS011;62488;-37.670;-63.532;2023-04-28T06:31:27;15.35;;;3.67;;
44036;SDS011;62488;-37.670;-63.532;2023-04-28T06:33:54;16.88;;;3.20;;
44036;SDS011;62488;-37.670;-63.532;2023-04-28T06:36:21;15.25;;;4.78;;
44036;SDS011;62488;-37.670;-63.532;2023-04-28T06:38:48;30.90;;;4.88;;
44036;SDS011;62488;-37.670;-63.532;2023-04-28T06:41:15;14.73;;;3.55;;
44036;SDS011;62488;-37.670;-63.532;2023-04-28T06:43:42;19.52;;;3.13;;
44036;SDS011;62488;-37.670;-63.532;2023-04-28T06:46:09;18.67;;;4.25;;
44036;SDS011;62488;-37.670;-63.532;2023-04-28T06:48:36;16.55;;;3.72;;
44036;SDS011;62488;-37.670;-63.532;2023-04-28T06:51:03;13.30;;;2.92;;
44036;SDS011;62488;-37.670;-63.532;2023-04-28T06:53:30;19.02;;;3.42;;
44036;SDS011;62488;-37.670;-63.532;2023-04-28T06:55:58;20.30;;;3.88;;
44036;SDS011;62488;-37.670;-63.532;2023-04-28T06:58:25;15.23;;;3.63;;
44036;SDS011;62488;-37.670;-63.532;2023-04-28T07:00:52;14.23;;;3.88;;
44036;SDS011;62488;-37.670;-63.532;2023-04-28T07:03:19;14.10;;;4.10;;
44036;SDS011;62488;-37.670;-63.532;2023-04-28T07:05:46;24.92;;;4.40;;
44036;SDS011;62488;-37.670;-63.532;2023-04-28T07:08:13;19.63;;;3.13;;
44036;SDS011;62488;-37.670;-63.532;2023-04-28T07:10:41;13.37;;;3.53;;
44036;SDS011;62488;-37.670;-63.532;2023-04-28T07:13:08;10.85;;;3.72;;
44036;SDS011;62488;-37.670;-63.532;2023-04-28T07:15:36;13.95;;;3.17;;
44036;SDS011;62488;-37.670;-63.532;2023-04-28T07:18:03;16.38;;;3.22;;
44036;SDS011;62488;-37.670;-63.532;2023-04-28T07:20:30;14.68;;;4.03;;
44036;SDS011;62488;-37.670;-63.532;2023-04-28T07:22:57;10.57;;;3.22;;
44036;SDS011;62488;-37.670;-63.532;2023-04-28T07:25:24;11.90;;;3.55;;
44036;SDS011;62488;-37.670;-63.532;2023-04-28T07:27:51;19.50;;;3.80;;
44036;SDS011;62488;-37.670;-63.532;2023-04-28T07:30:18;19.50;;;4.45;;
44036;SDS011;62488;-37.670;-63.532;2023-04-28T07:32:46;13.25;;;3.22;;
44036;SDS011;62488;-37.670;-63.532;2023-04-28T07:35:13;17.33;;;3.88;;
44036;SDS011;62488;-37.670;-63.532;2023-04-28T07:37:42;17.08;;;4.00;;
44036;SDS011;62488;-37.670;-63.532;2023-04-28T07:40:09;13.00;;;4.67;;
44036;SDS011;62488;-37.670;-63.532;2023-04-28T07:42:37;9.90;;;3.30;;
44036;SDS011;62488;-37.670;-63.532;2023-04-28T07:45:04;23.33;;;3.70;;
44036;SDS011;62488;-37.670;-63.532;2023-04-28T07:47:31;15.00;;;4.32;;
44036;SDS011;62488;-37.670;-63.532;2023-04-28T07:49:58;21.75;;;4.22;;
44036;SDS011;62488;-37.670;-63.532;2023-04-28T07:52:29;21.98;;;4.38;;
44036;SDS011;62488;-37.670;-63.532;2023-04-28T07:54:59;13.52;;;4.40;;
44036;SDS011;62488;-37.670;-63.532;2023-04-28T07:57:27;16.35;;;3.85;;
44036;SDS011;62488;-37.670;-63.532;2023-04-28T07:59:55;20.90;;;4.35;;
44036;SDS011;62488;-37.670;-63.532;2023-04-28T08:02:22;20.90;;;4.07;;
44036;SDS011;62488;-37.670;-63.532;2023-04-28T08:04:51;18.77;;;3.55;;
44036;SDS011;62488;-37.670;-63.532;2023-04-28T08:07:18;16.77;;;3.63;;
44036;SDS011;62488;-37.670;-63.532;2023-04-28T08:09:45;15.60;;;3.88;;
44036;SDS011;62488;-37.670;-63.532;2023-04-28T08:12:13;10.55;;;3.13;;
44036;SDS011;62488;-37.670;-63.532;2023-04-28T08:14:40;15.32;;;4.00;;
44036;SDS011;62488;-37.670;-63.532;2023-04-28T08:17:07;13.30;;;4.00;;
44036;SDS011;62488;-37.670;-63.532;2023-04-28T08:19:34;17.92;;;3.90;;
44036;SDS011;62488;-37.670;-63.532;2023-04-28T08:22:01;19.77;;;5.20;;
44036;SDS011;62488;-37.670;-63.532;2023-04-28T08:24:32;20.17;;;4.68;;
44036;SDS011;62488;-37.670;-63.532;2023-04-28T08:27:00;19.27;;;4.63;;
44036;SDS011;62488;-37.670;-63.532;2023-04-28T08:29:30;17.65;;;4.90;;
44036;SDS011;62488;-37.670;-63.532;2023-04-28T08:31:58;16.80;;;5.15;;
44036;SDS011;62488;-37.670;-63.532;2023-04-28T08:34:29;18.15;;;5.05;;
44036;SDS011;62488;-37.670;-63.532;2023-04-28T08:36:56;8.48;;;4.55;;
44036;SDS011;62488;-37.670;-63.532;2023-04-28T08:39:23;12.25;;;4.68;;
44036;SDS011;62488;-37.670;-63.532;2023-04-28T08:41:51;16.85;;;5.35;;
44036;SDS011;62488;-37.670;-63.532;2023-04-28T08:44:18;15.93;;;5.10;;
44036;SDS011;62488;-37.670;-63.532;2023-04-28T08:46:48;13.68;;;4.93;;
44036;SDS011;62488;-37.670;-63.532;2023-04-28T08:49:19;19.20;;;5.25;;
44036;SDS011;62488;-37.670;-63.532;2023-04-28T08:51:55;13.23;;;5.13;;
44036;SDS011;62488;-37.670;-63.532;2023-04-28T08:54:29;11.82;;;5.85;;
44036;SDS011;62488;-37.670;-63.532;2023-04-28T08:56:56;12.18;;;6.65;;
44036;SDS011;62488;-37.670;-63.532;2023-04-28T08:59:23;20.45;;;5.35;;
44036;SDS011;62488;-37.670;-63.532;2023-04-28T09:01:51;13.57;;;5.93;;
44036;SDS011;62488;-37.670;-63.532;2023-04-28T09:04:18;27.02;;;6.00;;
44036;SDS011;62488;-37.670;-63.532;2023-04-28T09:06:45;14.00;;;6.07;;
44036;SDS011;62488;-37.670;-63.532;2023-04-28T09:11:58;19.75;;;6.32;;
44036;SDS011;62488;-37.670;-63.532;2023-04-28T09:14:26;21.30;;;6.88;;
44036;SDS011;62488;-37.670;-63.532;2023-04-28T09:16:54;16.75;;;6.18;;
44036;SDS011;62488;-37.670;-63.532;2023-04-28T09:19:22;20.65;;;7.43;;
44036;SDS011;62488;-37.670;-63.532;2023-04-28T09:24:30;17.60;;;8.65;;
44036;SDS011;62488;-37.670;-63.532;2023-04-28T09:26:59;14.00;;;6.75;;
44036;SDS011;62488;-37.670;-63.532;2023-04-28T09:29:27;15.77;;;7.03;;
44036;SDS011;62488;-37.670;-63.532;2023-04-28T09:32:11;16.15;;;7.88;;
44036;SDS011;62488;-37.670;-63.532;2023-04-28T09:34:42;12.75;;;6.78;;
44036;SDS011;62488;-37.670;-63.532;2023-04-28T09:37:17;15.18;;;7.65;;
44036;SDS011;62488;-37.670;-63.532;2023-04-28T09:39:46;12.45;;;6.75;;
44036;SDS011;62488;-37.670;-63.532;2023-04-28T09:45:04;14.32;;;8.77;;
44036;SDS011;62488;-37.670;-63.532;2023-04-28T09:47:34;14.60;;;8.38;;
44036;SDS011;62488;-37.670;-63.532;2023-04-28T09:50:10;15.38;;;8.50;;
44036;SDS011;62488;-37.670;-63.532;2023-04-28T09:52:47;15.30;;;9.20;;
44036;SDS011;62488;-37.670;-63.532;2023-04-28T09:55:23;17.48;;;9.20;;
44036;SDS011;62488;-37.670;-63.532;2023-04-28T09:57:52;13.48;;;8.93;;
44036;SDS011;62488;-37.670;-63.532;2023-04-28T10:00:20;12.30;;;9.25;;
44036;SDS011;62488;-37.670;-63.532;2023-04-28T10:02:48;14.77;;;7.72;;
44036;SDS011;62488;-37.670;-63.532;2023-04-28T10:05:16;10.98;;;7.90;;
44036;SDS011;62488;-37.670;-63.532;2023-04-28T10:07:43;20.63;;;9.48;;
44036;SDS011;62488;-37.670;-63.532;2023-04-28T10:10:11;12.35;;;9.05;;
44036;SDS011;62488;-37.670;-63.532;2023-04-28T10:12:39;11.60;;;7.30;;
44036;SDS011;62488;-37.670;-63.532;2023-04-28T10:15:06;18.63;;;9.05;;
44036;SDS011;62488;-37.670;-63.532;2023-04-28T10:17:34;11.68;;;8.07;;
44036;SDS011;62488;-37.670;-63.532;2023-04-28T10:20:01;11.82;;;8.98;;
44036;SDS011;62488;-37.670;-63.532;2023-04-28T10:27:52;14.05;;;8.23;;
44036;SDS011;62488;-37.670;-63.532;2023-04-28T10:30:22;13.18;;;7.90;;
44036;SDS011;62488;-37.670;-63.532;2023-04-28T10:35:43;13.18;;;8.50;;
44036;SDS011;62488;-37.670;-63.532;2023-04-28T10:38:18;16.70;;;9.40;;
44036;SDS011;62488;-37.670;-63.532;2023-04-28T10:40:51;11.80;;;8.38;;
44036;SDS011;62488;-37.670;-63.532;2023-04-28T10:45:58;13.95;;;8.68;;
44036;SDS011;62488;-37.670;-63.532;2023-04-28T10:56:12;9.88;;;8.77;;
44036;SDS011;62488;-37.670;-63.532;2023-04-28T10:58:41;12.27;;;9.75;;
44036;SDS011;62488;-37.670;-63.532;2023-04-28T11:03:57;11.80;;;8.80;;
44036;SDS011;62488;-37.670;-63.532;2023-04-28T11:06:28;16.63;;;9.40;;
44036;SDS011;62488;-37.670;-63.532;2023-04-28T11:08:59;17.70;;;10.73;;
44036;SDS011;62488;-37.670;-63.532;2023-04-28T11:11:39;15.45;;;11.07;;
44036;SDS011;62488;-37.670;-63.532;2023-04-28T11:16:55;13.40;;;10.05;;
44036;SDS011;62488;-37.670;-63.532;2023-04-28T11:22:01;10.77;;;8.65;;
44036;SDS011;62488;-37.670;-63.532;2023-04-28T11:24:34;10.02;;;7.80;;
44036;SDS011;62488;-37.670;-63.532;2023-04-28T11:27:01;10.45;;;9.38;;
44036;SDS011;62488;-37.670;-63.532;2023-04-28T11:29:32;12.23;;;8.65;;
44036;SDS011;62488;-37.670;-63.532;2023-04-28T11:32:00;8.38;;;7.53;;
44036;SDS011;62488;-37.670;-63.532;2023-04-28T11:34:28;11.13;;;7.97;;
44036;SDS011;62488;-37.670;-63.532;2023-04-28T11:36:56;10.48;;;8.38;;
44036;SDS011;62488;-37.670;-63.532;2023-04-28T11:39:29;9.88;;;7.38;;
44036;SDS011;62488;-37.670;-63.532;2023-04-28T11:41:58;10.55;;;7.57;;
44036;SDS011;62488;-37.670;-63.532;2023-04-28T11:44:28;13.45;;;8.07;;
44036;SDS011;62488;-37.670;-63.532;2023-04-28T11:46:56;17.50;;;7.90;;
44036;SDS011;62488;-37.670;-63.532;2023-04-28T11:49:25;10.40;;;5.85;;
44036;SDS011;62488;-37.670;-63.532;2023-04-28T11:51:56;14.77;;;7.60;;
44036;SDS011;62488;-37.670;-63.532;2023-04-28T11:54:25;9.50;;;6.83;;
44036;SDS011;62488;-37.670;-63.532;2023-04-28T11:56:54;16.23;;;7.57;;
44036;SDS011;62488;-37.670;-63.532;2023-04-28T11:59:26;14.23;;;7.10;;
44036;SDS011;62488;-37.670;-63.532;2023-04-28T12:01:59;13.57;;;6.88;;
44036;SDS011;62488;-37.670;-63.532;2023-04-28T12:09:29;8.35;;;6.88;;
44036;SDS011;62488;-37.670;-63.532;2023-04-28T12:11:58;13.35;;;7.03;;
44036;SDS011;62488;-37.670;-63.532;2023-04-28T12:14:27;11.75;;;5.95;;
44036;SDS011;62488;-37.670;-63.532;2023-04-28T12:16:57;7.03;;;6.25;;
44036;SDS011;62488;-37.670;-63.532;2023-04-28T12:19:24;8.82;;;5.90;;
44036;SDS011;62488;-37.670;-63.532;2023-04-28T12:21:59;8.73;;;5.88;;
44036;SDS011;62488;-37.670;-63.532;2023-04-28T12:24:30;16.98;;;6.88;;
44036;SDS011;62488;-37.670;-63.532;2023-04-28T12:27:15;9.75;;;6.55;;
44036;SDS011;62488;-37.670;-63.532;2023-04-28T12:29:50;20.75;;;6.35;;
44036;SDS011;62488;-37.670;-63.532;2023-04-28T12:32:17;18.55;;;6.47;;
44036;SDS011;62488;-37.670;-63.532;2023-04-28T12:34:45;12.05;;;6.85;;
44036;SDS011;62488;-37.670;-63.532;2023-04-28T12:37:12;12.00;;;5.80;;
44036;SDS011;62488;-37.670;-63.532;2023-04-28T12:39:40;21.38;;;6.00;;
44036;SDS011;62488;-37.670;-63.532;2023-04-28T12:42:07;9.35;;;5.18;;
44036;SDS011;62488;-37.670;-63.532;2023-04-28T12:44:35;7.93;;;5.05;;
44036;SDS011;62488;-37.670;-63.532;2023-04-28T12:47:03;9.70;;;5.78;;
44036;SDS011;62488;-37.670;-63.532;2023-04-28T12:49:35;12.50;;;5.22;;
44036;SDS011;62488;-37.670;-63.532;2023-04-28T12:52:03;10.77;;;4.97;;
44036;SDS011;62488;-37.670;-63.532;2023-04-28T12:54:31;19.20;;;5.93;;
44036;SDS011;62488;-37.670;-63.532;2023-04-28T12:56:58;11.02;;;6.07;;
44036;SDS011;62488;-37.670;-63.532;2023-04-28T12:59:26;12.48;;;5.03;;
44036;SDS011;62488;-37.670;-63.532;2023-04-28T13:01:53;20.67;;;5.45;;
44036;SDS011;62488;-37.670;-63.532;2023-04-28T13:04:20;13.52;;;4.38;;
44036;SDS011;62488;-37.670;-63.532;2023-04-28T13:06:47;11.50;;;5.07;;
44036;SDS011;62488;-37.670;-63.532;2023-04-28T13:09:14;7.75;;;4.03;;
44036;SDS011;62488;-37.670;-63.532;2023-04-28T13:11:42;8.95;;;4.85;;
44036;SDS011;62488;-37.670;-63.532;2023-04-28T13:14:09;18.05;;;4.68;;
44036;SDS011;62488;-37.670;-63.532;2023-04-28T13:16:36;11.43;;;4.40;;
44036;SDS011;62488;-37.670;-63.532;2023-04-28T13:19:03;19.85;;;5.13;;
44036;SDS011;62488;-37.670;-63.532;2023-04-28T13:21:34;9.73;;;4.20;;
44036;SDS011;62488;-37.670;-63.532;2023-04-28T13:24:03;7.55;;;3.70;;
44036;SDS011;62488;-37.670;-63.532;2023-04-28T13:26:30;13.40;;;4.18;;
44036;SDS011;62488;-37.670;-63.532;2023-04-28T13:28:57;13.75;;;4.03;;
44036;SDS011;62488;-37.670;-63.532;2023-04-28T13:31:25;22.92;;;5.45;;
44036;SDS011;62488;-37.670;-63.532;2023-04-28T13:33:52;17.60;;;5.53;;
44036;SDS011;62488;-37.670;-63.532;2023-04-28T13:36:19;15.07;;;4.20;;
44036;SDS011;62488;-37.670;-63.532;2023-04-28T13:38:48;15.68;;;3.78;;
44036;SDS011;62488;-37.670;-63.532;2023-04-28T13:41:15;19.02;;;3.95;;
44036;SDS011;62488;-37.670;-63.532;2023-04-28T13:43:43;14.50;;;3.85;;
44036;SDS011;62488;-37.670;-63.532;2023-04-28T13:46:10;18.02;;;4.35;;
44036;SDS011;62488;-37.670;-63.532;2023-04-28T13:48:37;17.92;;;3.63;;
44036;SDS011;62488;-37.670;-63.532;2023-04-28T13:51:05;10.65;;;3.72;;
44036;SDS011;62488;-37.670;-63.532;2023-04-28T13:53:33;10.55;;;3.50;;
44036;SDS011;62488;-37.670;-63.532;2023-04-28T13:56:05;14.85;;;3.83;;
44036;SDS011;62488;-37.670;-63.532;2023-04-28T13:58:32;23.60;;;4.57;;
44036;SDS011;62488;-37.670;-63.532;2023-04-28T14:00:59;14.43;;;3.75;;
44036;SDS011;62488;-37.670;-63.532;2023-04-28T14:03:28;15.43;;;4.10;;
44036;SDS011;62488;-37.670;-63.532;2023-04-28T14:05:56;12.52;;;3.45;;
44036;SDS011;62488;-37.670;-63.532;2023-04-28T14:08:24;17.95;;;3.42;;
44036;SDS011;62488;-37.670;-63.532;2023-04-28T14:10:51;16.33;;;3.42;;
44036;SDS011;62488;-37.670;-63.532;2023-04-28T14:13:18;18.13;;;4.18;;
44036;SDS011;62488;-37.670;-63.532;2023-04-28T14:15:46;22.02;;;4.53;;
44036;SDS011;62488;-37.670;-63.532;2023-04-28T14:18:13;16.23;;;3.38;;
44036;SDS011;62488;-37.670;-63.532;2023-04-28T14:20:40;15.00;;;3.90;;
44036;SDS011;62488;-37.670;-63.532;2023-04-28T14:23:08;12.00;;;2.80;;
44036;SDS011;62488;-37.670;-63.532;2023-04-28T14:25:35;32.10;;;5.22;;
44036;SDS011;62488;-37.670;-63.532;2023-04-28T14:28:05;15.32;;;3.30;;
44036;SDS011;62488;-37.670;-63.532;2023-04-28T14:30:33;17.42;;;3.88;;
44036;SDS011;62488;-37.670;-63.532;2023-04-28T14:32:59;17.48;;;3.63;;
44036;SDS011;62488;-37.670;-63.532;2023-04-28T14:35:26;17.48;;;3.55;;
44036;SDS011;62488;-37.670;-63.532;2023-04-28T14:37:56;24.15;;;3.88;;
44036;SDS011;62488;-37.670;-63.532;2023-04-28T14:40:23;22.55;;;3.65;;
44036;SDS011;62488;-37.670;-63.532;2023-04-28T14:42:50;22.70;;;4.07;;